Time;durP1;ratioP1;P1;durP2;ratioP2;P2;SDS_P1;SDS_P2;PMS_P1;PMS_P2;Temp;Humidity;BMP_temperature;BMP_pressure;BME280_temperature;BME280_humidity;BME280_pressure;Samples;Min_cycle;Max_cycle;Signal;HPM_P1;HPM_P2
2021/06/27 00:00:23;;;;;;;0.50;0.50;;;;;;;18.66;56.12;100443.56;6187775;23;20009;-74
2021/06/27 00:02:49;;;;;;;0.30;0.30;;;;;;;18.63;55.85;100444.22;6186456;23;20005;-73
2021/06/27 00:05:18;;;;;;;0.32;0.32;;;;;;;18.63;55.78;100438.66;6163629;23;20001;-72
2021/06/27 00:07:44;;;;;;;0.30;0.30;;;;;;;18.62;55.80;100431.50;6183908;23;20336;-72
2021/06/27 00:10:16;;;;;;;0.50;0.50;;;;;;;18.62;55.68;100430.69;6175621;23;20017;-75
2021/06/27 00:12:43;;;;;;;0.40;0.40;;;;;;;18.62;55.52;100425.94;6185598;23;19997;-73
2021/06/27 00:15:15;;;;;;;0.40;0.40;;;;;;;18.64;55.64;100429.22;6157550;23;20071;-74
2021/06/27 00:17:40;;;;;;;0.40;0.40;;;;;;;18.60;55.51;100416.31;6186219;23;20024;-74
2021/06/27 00:20:10;;;;;;;1.98;0.40;;;;;;;18.56;55.32;100427.25;6185520;23;20013;-73
2021/06/27 00:22:36;;;;;;;0.43;0.43;;;;;;;18.52;55.61;100425.44;6186163;23;20008;-74
2021/06/27 00:25:05;;;;;;;0.50;0.50;;;;;;;18.50;55.03;100428.53;6161430;23;20743;-73
2021/06/27 00:27:30;;;;;;;0.45;0.20;;;;;;;18.47;54.97;100426.38;6184045;23;20005;-76
2021/06/27 00:29:55;;;;;;;0.20;0.20;;;;;;;18.44;55.11;100435.31;6167268;23;20023;-76
2021/06/27 00:32:21;;;;;;;0.20;0.13;;;;;;;18.47;55.18;100429.13;6144691;23;20012;-75
2021/06/27 00:34:46;;;;;;;0.10;0.10;;;;;;;18.53;54.78;100427.88;6170231;23;20023;-75
2021/06/27 00:37:12;;;;;;;0.40;0.40;;;;;;;18.58;54.71;100430.50;6194815;23;20005;-74
2021/06/27 00:39:37;;;;;;;0.30;0.20;;;;;;;18.56;54.70;100420.88;6151088;23;20018;-74
2021/06/27 00:42:04;;;;;;;0.30;0.30;;;;;;;18.52;54.64;100417.94;6153787;23;20017;-75
2021/06/27 00:44:29;;;;;;;0.40;0.30;;;;;;;18.53;54.62;100427.03;6158937;23;20013;-73
2021/06/27 00:46:54;;;;;;;0.82;0.40;;;;;;;18.46;54.92;100422.78;6160650;23;20041;-75
2021/06/27 00:49:21;;;;;;;1.23;0.50;;;;;;;18.41;54.87;100424.88;6159766;23;20011;-75
2021/06/27 00:51:47;;;;;;;0.40;0.40;;;;;;;18.34;54.94;100416.22;6161275;23;20490;-78
2021/06/27 00:54:13;;;;;;;0.40;0.40;;;;;;;18.30;55.00;100419.63;6131807;23;20009;-76
2021/06/27 00:56:38;;;;;;;0.50;0.50;;;;;;;18.24;55.03;100420.91;6161296;23;20304;-75
2021/06/27 00:59:03;;;;;;;0.47;0.47;;;;;;;18.22;55.63;100416.81;6101654;23;20005;-75
2021/06/27 01:01:29;;;;;;;1.42;0.43;;;;;;;18.15;55.68;100417.28;6135962;23;20013;-75
2021/06/27 01:03:54;;;;;;;0.50;0.50;;;;;;;18.11;55.39;100419.84;6132893;23;20005;-75
2021/06/27 01:06:20;;;;;;;0.50;0.50;;;;;;;18.10;56.10;100409.91;6129314;23;20005;-75
2021/06/27 01:08:45;;;;;;;0.63;0.63;;;;;;;18.07;56.13;100409.75;6158048;23;20080;-73
2021/06/27 01:11:11;;;;;;;0.77;0.77;;;;;;;18.07;56.13;100412.50;6107943;23;20278;-75
2021/06/27 01:13:36;;;;;;;0.68;0.68;;;;;;;18.08;56.25;100412.19;6111036;23;20444;-75
2021/06/27 01:16:02;;;;;;;0.55;0.55;;;;;;;18.09;56.30;100415.75;6159825;23;20010;-74
2021/06/27 01:18:28;;;;;;;0.70;0.70;;;;;;;18.05;56.46;100401.75;6133470;23;20080;-74
2021/06/27 01:20:54;;;;;;;3.83;0.70;;;;;;;18.11;56.05;100416.28;6160773;23;20022;-77
2021/06/27 01:23:20;;;;;;;0.50;0.50;;;;;;;18.10;56.29;100417.41;6162604;23;20033;-77
2021/06/27 01:25:55;;;;;;;0.50;0.50;;;;;;;18.11;56.39;100410.75;6161489;23;20008;-77
2021/06/27 01:28:20;;;;;;;0.85;0.85;;;;;;;18.15;56.69;100411.75;6157008;23;20033;-76
2021/06/27 01:30:46;;;;;;;0.60;0.60;;;;;;;18.15;56.45;100411.75;6159690;23;20060;-78
2021/06/27 01:33:19;;;;;;;0.52;0.52;;;;;;;18.10;56.80;100398.84;6161667;23;19997;-78
2021/06/27 01:35:46;;;;;;;0.85;0.85;;;;;;;18.16;56.82;100418.09;6157068;23;20009;-78
2021/06/27 01:38:13;;;;;;;0.65;0.65;;;;;;;18.12;56.61;100417.91;6139510;23;20059;-76
2021/06/27 01:40:39;;;;;;;0.75;0.75;;;;;;;18.07;57.05;100410.56;6165408;23;20013;-75
2021/06/27 01:43:15;;;;;;;0.70;0.70;;;;;;;18.06;57.34;100410.88;6203727;23;20076;-76
2021/06/27 01:45:49;;;;;;;0.90;0.90;;;;;;;18.02;56.83;100401.56;6198747;23;20013;-75
2021/06/27 01:48:16;;;;;;;1.10;1.10;;;;;;;17.97;57.74;100399.75;6191732;23;20084;-76
2021/06/27 01:50:43;;;;;;;1.70;1.60;;;;;;;17.87;57.92;100403.59;6185718;23;20017;-76
2021/06/27 01:53:11;;;;;;;1.48;1.40;;;;;;;17.78;58.10;100391.63;6190170;23;20005;-75
2021/06/27 01:55:38;;;;;;;1.90;1.75;;;;;;;17.70;58.94;100389.66;6190954;23;20040;-76
2021/06/27 01:58:03;;;;;;;1.55;1.50;;;;;;;17.70;59.02;100406.25;6190828;23;20013;-74
2021/06/27 02:00:30;;;;;;;1.83;1.75;;;;;;;17.69;59.31;100399.06;6189925;23;20039;-74
2021/06/27 02:02:56;;;;;;;1.88;1.77;;;;;;;17.69;59.36;100415.66;6195008;23;20009;-74
2021/06/27 02:05:22;;;;;;;2.55;2.30;;;;;;;17.63;59.41;100399.19;6198961;23;20005;-72
2021/06/27 02:07:48;;;;;;;3.53;2.78;;;;;;;17.61;59.69;100393.16;6193212;23;20039;-74
2021/06/27 02:10:19;;;;;;;3.85;3.50;;;;;;;17.58;60.38;100391.03;6155911;23;20009;-73
2021/06/27 02:12:46;;;;;;;2.10;2.00;;;;;;;17.55;60.13;100388.88;6162601;23;20001;-73
2021/06/27 02:15:12;;;;;;;2.30;2.20;;;;;;;17.58;60.48;100395.72;6188200;23;20092;-75
2021/06/27 02:17:48;;;;;;;2.50;2.40;;;;;;;17.62;60.01;100393.97;6185083;23;20009;-74
2021/06/27 02:20:14;;;;;;;3.63;3.45;;;;;;;17.60;60.54;100383.22;6185520;23;20009;-74
2021/06/27 02:22:40;;;;;;;4.63;2.97;;;;;;;17.58;60.70;100382.72;6188621;23;20012;-73
2021/06/27 02:25:05;;;;;;;3.45;2.95;;;;;;;17.61;60.54;100381.28;6163418;23;20005;-74
2021/06/27 02:27:31;;;;;;;3.00;2.88;;;;;;;17.59;60.69;100383.53;6157068;23;20001;-72
2021/06/27 02:29:56;;;;;;;3.20;3.00;;;;;;;17.58;60.61;100381.88;6184159;23;20009;-74
2021/06/27 02:32:22;;;;;;;3.00;2.90;;;;;;;17.58;60.99;100371.66;6160286;23;20009;-74
2021/06/27 02:34:48;;;;;;;4.85;3.08;;;;;;;17.59;60.80;100373.28;6189414;23;20446;-74
2021/06/27 02:37:13;;;;;;;3.55;3.40;;;;;;;17.56;61.14;100362.84;6163412;23;20016;-75
2021/06/27 02:39:39;;;;;;;4.38;4.18;;;;;;;17.55;61.13;100366.78;6160408;23;20016;-74
2021/06/27 02:42:05;;;;;;;3.33;3.13;;;;;;;17.54;61.33;100370.66;6162335;23;20009;-73
2021/06/27 02:44:30;;;;;;;2.85;2.75;;;;;;;17.55;61.26;100374.22;6182909;23;20028;-74
2021/06/27 02:46:56;;;;;;;4.05;3.85;;;;;;;17.54;61.31;100356.84;6165120;23;20016;-74
2021/06/27 02:49:23;;;;;;;4.35;4.05;;;;;;;17.51;61.25;100365.75;6188832;23;20375;-75
2021/06/27 02:51:49;;;;;;;3.92;3.72;;;;;;;17.52;61.14;100353.59;6186438;23;20522;-74
2021/06/27 02:54:14;;;;;;;3.80;3.67;;;;;;;17.53;61.54;100349.66;6190599;23;20001;-75
2021/06/27 02:56:39;;;;;;;4.18;3.88;;;;;;;17.55;61.12;100354.88;6189957;23;20017;-75
2021/06/27 02:59:05;;;;;;;3.85;3.60;;;;;;;17.52;61.42;100345.28;6163405;23;20012;-75
2021/06/27 03:01:30;;;;;;;3.75;3.55;;;;;;;17.55;61.48;100347.41;6183307;23;20089;-72
2021/06/27 03:03:56;;;;;;;3.50;3.40;;;;;;;17.55;60.99;100341.88;6160905;23;20069;-73
2021/06/27 03:06:21;;;;;;;4.35;4.10;;;;;;;17.55;61.45;100343.81;6189305;23;20015;-74
2021/06/27 03:08:47;;;;;;;3.17;3.08;;;;;;;17.54;61.38;100333.91;6157499;23;20005;-74
2021/06/27 03:11:12;;;;;;;3.38;3.25;;;;;;;17.50;61.57;100325.41;6188343;23;20005;-72
2021/06/27 03:13:41;;;;;;;2.92;2.83;;;;;;;17.50;61.66;100336.47;6154748;23;20017;-74
2021/06/27 03:16:08;;;;;;;3.25;3.05;;;;;;;17.48;61.44;100322.16;6183104;23;20001;-73
2021/06/27 03:18:35;;;;;;;2.85;2.75;;;;;;;17.43;61.64;100330.56;6185766;23;20317;-74
2021/06/27 03:21:00;;;;;;;2.92;2.83;;;;;;;17.40;61.54;100317.38;6187820;23;20001;-74
2021/06/27 03:23:26;;;;;;;3.25;3.05;;;;;;;17.35;61.50;100315.56;6190577;23;19997;-74
2021/06/27 03:25:53;;;;;;;2.78;2.67;;;;;;;17.28;61.75;100313.22;6185562;23;20088;-73
2021/06/27 03:28:20;;;;;;;2.50;2.30;;;;;;;17.25;62.06;100313.88;6185813;23;20005;-73
2021/06/27 03:30:45;;;;;;;3.22;3.13;;;;;;;17.20;61.93;100305.72;6159134;23;20005;-75
2021/06/27 03:33:11;;;;;;;2.63;2.53;;;;;;;17.15;62.43;100303.06;6196346;23;20013;-74
2021/06/27 03:35:36;;;;;;;2.38;2.28;;;;;;;17.18;62.16;100305.19;6202812;23;20020;-74
2021/06/27 03:38:17;;;;;;;2.47;2.38;;;;;;;17.23;62.67;100293.19;6200780;23;20009;-74
2021/06/27 03:40:43;;;;;;;2.53;2.42;;;;;;;17.20;62.40;100299.34;6186003;23;20412;-73
2021/06/27 03:43:09;;;;;;;2.35;2.17;;;;;;;17.19;62.59;100293.03;6188016;23;20750;-73
2021/06/27 03:45:36;;;;;;;2.17;1.85;;;;;;;17.21;62.54;100293.50;6183111;23;20494;-73
2021/06/27 03:48:02;;;;;;;2.05;1.95;;;;;;;17.19;62.28;100293.03;6159783;23;20009;-73
2021/06/27 03:50:27;;;;;;;2.03;1.92;;;;;;;17.21;62.23;100296.28;6181061;23;20016;-73
2021/06/27 03:52:53;;;;;;;2.05;1.95;;;;;;;17.18;62.49;100291.38;6185837;23;20012;-73
2021/06/27 03:55:19;;;;;;;2.35;2.25;;;;;;;17.20;62.63;100291.06;6159084;23;20009;-73
2021/06/27 03:57:46;;;;;;;2.22;2.13;;;;;;;17.19;62.53;100293.03;6131509;23;20013;-75
2021/06/27 04:00:12;;;;;;;2.30;2.20;;;;;;;17.18;62.71;100285.84;6187256;23;20359;-74
2021/06/27 04:02:39;;;;;;;2.78;2.45;;;;;;;17.18;62.42;100277.56;6159593;23;20005;-74
2021/06/27 04:05:05;;;;;;;2.55;2.35;;;;;;;17.19;63.08;100276.44;6187480;23;20096;-75
2021/06/27 04:07:30;;;;;;;2.30;2.20;;;;;;;17.17;62.80;100289.75;6187811;23;20004;-77
2021/06/27 04:09:56;;;;;;;2.85;2.75;;;;;;;17.17;63.00;100287.00;6154318;23;20373;-73
2021/06/27 04:12:22;;;;;;;2.42;2.33;;;;;;;17.19;63.03;100294.97;6183712;23;20033;-75
2021/06/27 04:14:47;;;;;;;2.67;2.47;;;;;;;17.22;62.66;100292.38;6189096;23;20400;-75
2021/06/27 04:17:17;;;;;;;1.98;1.88;;;;;;;17.26;62.85;100282.34;6189964;23;20015;-74
2021/06/27 04:19:42;;;;;;;2.78;2.60;;;;;;;17.30;62.78;100298.28;6165299;23;20071;-75
2021/06/27 04:22:08;;;;;;;1.98;1.88;;;;;;;17.31;62.45;100295.22;6187560;23;20432;-74
2021/06/27 04:24:33;;;;;;;3.25;1.60;;;;;;;17.39;61.95;100299.16;6189120;23;20306;-74
2021/06/27 04:26:59;;;;;;;6.45;2.42;;;;;;;17.41;62.23;100291.38;6160887;23;20023;-75
2021/06/27 04:29:24;;;;;;;2.20;2.10;;;;;;;17.44;62.05;100287.97;6163761;23;20057;-75
2021/06/27 04:31:50;;;;;;;2.40;2.30;;;;;;;17.42;62.29;100268.97;6164718;23;20005;-75
2021/06/27 04:34:16;;;;;;;3.17;2.97;;;;;;;17.48;62.15;100277.09;6185292;23;20005;-74
2021/06/27 04:36:41;;;;;;;2.45;2.35;;;;;;;17.44;62.82;100269.44;6185898;23;20495;-76
2021/06/27 04:39:08;;;;;;;2.85;2.65;;;;;;;17.44;62.68;100277.75;6186806;23;20008;-75
2021/06/27 04:41:34;;;;;;;2.65;2.55;;;;;;;17.45;62.83;100284.09;6186545;23;20104;-75
2021/06/27 04:44:00;;;;;;;2.80;2.67;;;;;;;17.45;63.18;100284.09;6188418;23;20005;-76
2021/06/27 04:46:26;;;;;;;2.95;2.75;;;;;;;17.42;63.22;100284.69;6190653;23;20001;-76
2021/06/27 04:48:51;;;;;;;2.03;1.92;;;;;;;17.42;63.22;100279.19;6160212;23;20024;-76
2021/06/27 04:51:17;;;;;;;2.50;2.40;;;;;;;17.40;63.53;100273.16;6192308;23;20459;-76
2021/06/27 04:53:42;;;;;;;3.75;3.55;;;;;;;17.36;63.72;100272.16;6161570;23;20059;-77
2021/06/27 04:56:08;;;;;;;3.30;3.17;;;;;;;17.36;63.87;100277.69;6194149;23;20009;-75
2021/06/27 04:58:33;;;;;;;4.07;3.65;;;;;;;17.34;64.05;100278.00;6192053;23;20009;-75
2021/06/27 05:00:59;;;;;;;4.32;4.13;;;;;;;17.31;64.59;100272.28;6196512;23;20036;-77
2021/06/27 05:03:24;;;;;;;3.72;3.53;;;;;;;17.32;64.31;100266.47;6189777;23;20030;-75
2021/06/27 05:05:49;;;;;;;4.43;4.10;;;;;;;17.34;65.10;100271.66;6190518;23;20005;-76
2021/06/27 05:08:15;;;;;;;4.90;4.60;;;;;;;17.34;64.93;100266.13;6166332;23;20019;-75
2021/06/27 05:10:40;;;;;;;4.18;3.90;;;;;;;17.37;64.69;100271.03;6180294;23;20026;-76
2021/06/27 05:13:07;;;;;;;5.28;4.78;;;;;;;17.39;64.68;100264.06;6192036;23;20416;-76
2021/06/27 05:15:32;;;;;;;4.88;4.32;;;;;;;17.43;64.62;100254.00;6187068;23;20005;-77
2021/06/27 05:17:58;;;;;;;4.22;3.92;;;;;;;17.51;64.76;100255.19;6165598;23;20012;-76
2021/06/27 05:20:26;;;;;;;4.68;4.30;;;;;;;17.56;64.74;100252.28;6190579;23;20076;-77
2021/06/27 05:22:52;;;;;;;4.75;4.45;;;;;;;17.58;64.82;100261.06;6163135;23;20001;-76
2021/06/27 05:25:17;;;;;;;5.45;4.95;;;;;;;17.65;64.67;100265.34;6189512;23;20043;-75
2021/06/27 05:27:43;;;;;;;4.68;4.38;;;;;;;17.68;64.54;100265.50;6182552;23;20005;-75
2021/06/27 05:30:09;;;;;;;4.97;4.68;;;;;;;17.70;64.81;100270.75;6183202;23;20024;-75
2021/06/27 05:32:34;;;;;;;3.90;3.70;;;;;;;17.73;64.58;100267.34;6188080;23;20088;-77
2021/06/27 05:35:00;;;;;;;4.28;3.90;;;;;;;17.79;64.36;100272.38;6189597;23;20013;-76
2021/06/27 05:37:25;;;;;;;3.75;3.50;;;;;;;17.86;64.38;100263.66;6189055;23;20084;-76
2021/06/27 05:39:50;;;;;;;4.65;3.92;;;;;;;17.86;64.29;100274.72;6185685;23;20040;-76
2021/06/27 05:42:18;;;;;;;4.05;3.72;;;;;;;17.86;64.20;100271.94;6160845;23;20009;-75
2021/06/27 05:44:44;;;;;;;3.22;3.03;;;;;;;17.86;64.63;100271.94;6182287;23;20009;-75
2021/06/27 05:47:09;;;;;;;4.15;3.60;;;;;;;17.89;64.52;100281.56;6160961;23;20091;-76
2021/06/27 05:49:35;;;;;;;2.55;2.38;;;;;;;17.93;64.28;100275.09;6155917;23;20036;-75
2021/06/27 05:52:00;;;;;;;2.40;2.20;;;;;;;17.96;64.03;100271.69;6187884;23;20009;-76
2021/06/27 05:54:26;;;;;;;3.90;3.72;;;;;;;17.99;64.04;100258.34;6136587;23;20084;-76
2021/06/27 05:56:51;;;;;;;3.20;2.90;;;;;;;18.06;63.96;100276.13;6187417;23;20029;-76
2021/06/27 05:59:17;;;;;;;5.50;2.63;;;;;;;18.08;63.81;100273.03;6162785;23;20009;-74
2021/06/27 06:01:42;;;;;;;5.05;3.20;;;;;;;18.13;63.78;100275.66;6186056;23;20013;-74
2021/06/27 06:04:07;;;;;;;3.75;3.55;;;;;;;18.14;63.92;100277.28;6186615;23;20001;-76
2021/06/27 06:06:33;;;;;;;5.63;5.25;;;;;;;18.08;64.01;100273.03;6182093;23;20032;-75
2021/06/27 06:08:58;;;;;;;4.65;4.20;;;;;;;18.06;64.38;100275.28;6162827;23;20742;-76
2021/06/27 06:11:25;;;;;;;3.33;3.13;;;;;;;18.01;64.10;100272.69;6190276;23;20044;-76
2021/06/27 06:13:50;;;;;;;3.63;3.33;;;;;;;17.98;64.05;100278.88;6189574;23;20009;-76
2021/06/27 06:16:16;;;;;;;4.00;3.70;;;;;;;17.95;64.07;100275.59;6187995;23;20543;-74
2021/06/27 06:18:44;;;;;;;5.78;5.22;;;;;;;17.95;64.65;100275.59;6191066;23;20419;-76
2021/06/27 06:21:10;;;;;;;5.22;4.70;;;;;;;17.91;64.72;100268.25;6165601;23;20455;-77
2021/06/27 06:23:36;;;;;;;4.68;4.38;;;;;;;17.87;64.56;100273.59;6193657;23;20012;-77
2021/06/27 06:26:02;;;;;;;5.00;4.35;;;;;;;17.87;65.07;100262.53;6191899;23;20008;-77
2021/06/27 06:28:27;;;;;;;5.80;5.30;;;;;;;17.88;64.80;100264.13;6157914;23;20088;-78
2021/06/27 06:30:53;;;;;;;4.43;4.13;;;;;;;17.89;64.84;100264.97;6198912;23;20005;-78
2021/06/27 06:33:18;;;;;;;4.90;4.50;;;;;;;17.91;64.87;100263.53;6172487;23;20009;-78
2021/06/27 06:35:44;;;;;;;4.10;3.80;;;;;;;17.94;65.01;100271.19;6188359;23;20051;-77
2021/06/27 06:38:10;;;;;;;4.93;4.55;;;;;;;17.96;64.86;100266.16;6183678;23;20005;-75
2021/06/27 06:40:37;;;;;;;5.22;4.72;;;;;;;17.98;65.19;100259.50;6161951;23;20025;-74
2021/06/27 06:43:04;;;;;;;4.80;3.72;;;;;;;18.00;65.01;100254.44;6179525;23;20489;-74
2021/06/27 06:45:30;;;;;;;7.72;5.30;;;;;;;17.99;65.39;100253.66;6184426;23;20020;-73
2021/06/27 06:47:55;;;;;;;5.57;4.97;;;;;;;17.96;65.29;100260.63;6179483;23;20001;-74
2021/06/27 06:50:22;;;;;;;11.85;6.15;;;;;;;18.01;65.58;100256.09;6181408;23;20062;-73
2021/06/27 06:52:47;;;;;;;6.35;5.78;;;;;;;17.98;65.43;100245.66;6179977;23;20013;-74
2021/06/27 06:55:29;;;;;;;7.70;4.88;;;;;;;18.08;65.75;100256.44;6153160;23;20009;-75
2021/06/27 06:58:07;;;;;;;6.03;5.18;;;;;;;18.07;65.57;100252.03;6176169;23;20016;-73
2021/06/27 07:00:34;;;;;;;7.30;6.70;;;;;;;18.13;65.64;100253.50;6183628;23;20011;-74
2021/06/27 07:03:00;;;;;;;6.13;5.00;;;;;;;18.06;65.52;100247.63;6177716;23;20012;-73
2021/06/27 07:05:26;;;;;;;4.78;4.45;;;;;;;18.17;65.33;100259.22;6184617;23;20005;-75
2021/06/27 07:07:54;;;;;;;6.40;4.82;;;;;;;18.10;65.66;100246.66;6158553;23;20008;-75
2021/06/27 07:10:22;;;;;;;10.27;6.97;;;;;;;18.21;65.75;100258.25;6183754;23;20096;-74
2021/06/27 07:12:47;;;;;;;9.20;6.50;;;;;;;18.26;65.86;100247.03;6179759;23;20416;-75
2021/06/27 07:15:16;;;;;;;6.95;6.32;;;;;;;18.28;65.85;100244.78;6132177;23;20019;-73
2021/06/27 07:17:41;;;;;;;7.55;6.43;;;;;;;18.21;65.93;100238.88;6187011;23;20016;-75
2021/06/27 07:20:14;;;;;;;8.85;6.88;;;;;;;18.28;65.77;100249.47;6184608;23;20001;-72
2021/06/27 07:22:41;;;;;;;7.25;6.50;;;;;;;18.28;66.16;100247.53;6184019;23;20437;-74
2021/06/27 07:25:07;;;;;;;7.35;6.55;;;;;;;18.17;66.21;100235.13;6179540;23;20013;-74
2021/06/27 07:27:33;;;;;;;9.60;6.55;;;;;;;18.21;66.00;100246.34;6158581;23;20017;-73
2021/06/27 07:30:01;;;;;;;6.88;6.18;;;;;;;18.16;66.07;100241.00;6183031;23;20001;-74
2021/06/27 07:32:26;;;;;;;7.25;6.03;;;;;;;18.24;65.76;100241.00;6187250;23;20005;-78
2021/06/27 07:35:01;;;;;;;7.85;5.32;;;;;;;18.26;66.15;100249.78;6191652;23;20009;-77
2021/06/27 07:37:27;;;;;;;6.97;5.63;;;;;;;18.14;65.90;100228.28;6192298;23;20008;-78
2021/06/27 07:39:52;;;;;;;6.55;5.95;;;;;;;18.26;66.28;100247.03;6139638;23;20025;-78
2021/06/27 07:42:22;;;;;;;11.98;7.47;;;;;;;18.24;66.36;100249.31;6163954;23;20009;-76
2021/06/27 07:44:48;;;;;;;6.43;5.68;;;;;;;18.16;66.36;100235.44;6183229;23;20028;-77
2021/06/27 07:47:13;;;;;;;7.38;6.60;;;;;;;18.21;66.06;100254.66;6158529;23;20009;-73
2021/06/27 07:49:39;;;;;;;7.57;6.88;;;;;;;18.06;66.83;100236.56;6181535;23;20009;-77
2021/06/27 07:52:14;;;;;;;5.95;5.60;;;;;;;18.09;66.31;100235.91;6184069;23;20055;-76
2021/06/27 07:54:39;;;;;;;7.75;6.40;;;;;;;18.11;66.59;100245.53;6187124;23;20558;-75
2021/06/27 07:57:06;;;;;;;6.68;6.07;;;;;;;18.21;66.43;100266.56;6180352;23;20000;-77
2021/06/27 07:59:32;;;;;;;7.55;6.32;;;;;;;18.13;66.23;100256.28;6162461;23;20009;-75
2021/06/27 08:01:57;;;;;;;5.30;4.90;;;;;;;18.17;66.37;100271.09;6189454;23;20061;-71
2021/06/27 08:04:23;;;;;;;6.10;4.95;;;;;;;18.18;66.42;100264.44;6204005;23;20001;-74
2021/06/27 08:06:48;;;;;;;9.13;5.78;;;;;;;18.15;66.50;100267.84;6180104;23;20021;-74
2021/06/27 08:09:21;;;;;;;7.53;6.85;;;;;;;18.00;66.90;100237.84;6188443;23;20433;-74
2021/06/27 08:11:47;;;;;;;8.05;7.10;;;;;;;18.11;66.79;100262.13;6157099;23;20080;-75
2021/06/27 08:14:14;;;;;;;8.20;7.50;;;;;;;18.06;67.25;100265.06;6160423;23;20432;-74
2021/06/27 08:16:40;;;;;;;7.95;6.60;;;;;;;18.04;67.44;100264.56;6182680;23;20005;-74
2021/06/27 08:19:06;;;;;;;8.88;7.35;;;;;;;17.99;67.38;100255.56;6181052;23;20040;-75
2021/06/27 08:21:31;;;;;;;8.05;6.95;;;;;;;17.89;67.59;100246.41;6155280;23;20013;-74
2021/06/27 08:23:57;;;;;;;8.20;7.28;;;;;;;17.98;67.75;100252.00;6184576;23;20377;-73
2021/06/27 08:26:23;;;;;;;8.63;7.40;;;;;;;18.03;67.89;100253.81;6155145;23;20005;-73
2021/06/27 08:28:50;;;;;;;6.03;5.45;;;;;;;18.06;67.82;100254.00;6157094;23;20009;-74
2021/06/27 08:31:16;;;;;;;9.25;6.90;;;;;;;18.10;68.12;100248.63;6179987;23;20005;-74
2021/06/27 08:33:44;;;;;;;7.40;6.80;;;;;;;18.16;67.91;100241.00;6157132;23;20072;-73
2021/06/27 08:36:09;;;;;;;6.72;6.13;;;;;;;18.36;68.08;100259.75;6177445;23;20391;-75
2021/06/27 08:38:37;;;;;;;9.68;7.40;;;;;;;18.47;67.46;100246.41;6132392;23;20033;-74
2021/06/27 08:41:05;;;;;;;7.45;6.60;;;;;;;18.60;67.60;100245.47;6182884;23;20067;-75
2021/06/27 08:43:35;;;;;;;9.27;7.60;;;;;;;18.84;67.19;100244.16;6157834;23;20035;-74
2021/06/27 08:46:07;;;;;;;7.43;6.65;;;;;;;18.88;66.91;100236.88;6181860;23;20004;-75
2021/06/27 08:48:36;;;;;;;7.95;6.88;;;;;;;19.11;66.40;100239.44;6182061;23;20063;-74
2021/06/27 08:51:11;;;;;;;9.90;7.18;;;;;;;19.23;66.18;100242.38;6183003;23;20420;-75
2021/06/27 08:53:39;;;;;;;;;;;;;;;19.40;65.58;100238.72;6179281;23;20016;-73
2021/06/27 08:56:14;;;;;;;8.25;6.82;;;;;;;19.24;65.98;100216.25;6179041;23;20487;-74
2021/06/27 08:58:42;;;;;;;12.65;8.25;;;;;;;19.43;65.62;100224.19;6175269;23;20033;-74
2021/06/27 09:01:19;;;;;;;7.88;6.68;;;;;;;19.78;65.31;100237.13;6179564;23;20029;-75
2021/06/27 09:03:46;;;;;;;16.23;8.50;;;;;;;19.89;64.71;100241.22;6178258;23;20009;-75
2021/06/27 09:06:31;;;;;;;7.97;6.55;;;;;;;19.94;64.88;100215.22;6157080;23;20020;-72
2021/06/27 09:09:29;;;;;;;7.65;6.80;;;;;;;20.43;63.90;100234.19;6178484;23;20310;-75
2021/06/27 09:12:04;;;;;;;9.68;6.60;;;;;;;20.68;63.22;100230.44;6177375;23;20008;-76
2021/06/27 09:14:34;;;;;;;10.57;6.80;;;;;;;20.80;62.85;100218.56;6178636;23;20013;-73
2021/06/27 09:17:22;;;;;;;9.77;6.90;;;;;;;21.02;62.06;100233.25;6178614;23;20014;-74
2021/06/27 09:20:07;;;;;;;;;;;;;;;;;;;;;
2021/06/27 09:22:50;;;;;;;7.07;6.43;;;;;;;21.20;61.21;100239.47;6183657;23;20087;-75
2021/06/27 09:25:31;;;;;;;6.72;6.05;;;;;;;21.15;60.88;100239.69;6181977;23;20032;-74
2021/06/27 09:28:10;;;;;;;7.30;6.22;;;;;;;21.14;61.10;100235.28;6184460;23;20001;-76
2021/06/27 09:30:41;;;;;;;6.28;5.80;;;;;;;21.01;60.74;100226.91;6187778;23;20015;-76
2021/06/27 09:33:22;;;;;;;9.48;7.07;;;;;;;20.92;60.87;100218.66;6189048;23;20009;-76
2021/06/27 09:36:09;;;;;;;8.13;7.03;;;;;;;20.82;60.77;100218.22;6183660;23;20001;-76
2021/06/27 09:38:51;;;;;;;;;;;;;;;;;;;;;
2021/06/27 09:41:23;;;;;;;8.48;7.68;;;;;;;20.96;61.22;100212.41;6183237;23;20381;-75
2021/06/27 09:43:55;;;;;;;8.27;6.88;;;;;;;20.99;60.75;100206.97;6181221;23;20017;-79
2021/06/27 09:46:32;;;;;;;9.60;8.20;;;;;;;21.25;60.67;100217.00;6182896;23;20009;-79
2021/06/27 09:49:00;;;;;;;8.65;7.85;;;;;;;21.32;60.63;100214.47;6178480;23;20032;-74
2021/06/27 09:51:28;;;;;;;11.63;8.25;;;;;;;21.48;60.49;100205.47;6180609;23;20001;-74
2021/06/27 09:53:54;;;;;;;11.10;8.70;;;;;;;21.87;60.17;100203.19;6152974;23;20401;-73
2021/06/27 09:56:21;;;;;;;14.70;9.07;;;;;;;22.35;58.44;100209.09;6182031;23;20032;-70
2021/06/27 09:58:56;;;;;;;9.40;7.70;;;;;;;22.68;57.82;100211.69;6179336;23;20016;-72
2021/06/27 10:01:56;;;;;;;11.57;10.05;;;;;;;22.91;56.64;100205.56;6180222;23;20024;-75
2021/06/27 10:04:29;;;;;;;9.75;8.68;;;;;;;22.98;56.37;100217.75;6182190;23;20025;-74
2021/06/27 10:06:57;;;;;;;9.23;8.30;;;;;;;23.05;55.95;100211.53;6171865;23;20048;-74
2021/06/27 10:09:29;;;;;;;12.93;8.57;;;;;;;23.07;55.27;100203.63;6180974;23;20005;-74
2021/06/27 10:12:34;;;;;;;11.43;8.40;;;;;;;23.26;54.89;100218.88;6181352;23;20393;-73
2021/06/27 10:15:00;;;;;;;10.77;8.77;;;;;;;23.16;54.64;100198.72;6176809;23;20107;-78
2021/06/27 10:17:29;;;;;;;10.40;8.65;;;;;;;23.10;54.90;100200.16;6180054;23;20005;-82
2021/06/27 10:19:56;;;;;;;12.63;9.20;;;;;;;23.08;54.55;100202.44;6185849;23;20005;-77
2021/06/27 10:22:25;;;;;;;6.65;5.97;;;;;;;23.25;55.07;100217.28;6185048;23;20005;-78
2021/06/27 10:25:29;;;;;;;11.93;9.25;;;;;;;23.37;54.74;100205.25;6172105;23;20005;-80
2021/06/27 10:27:54;;;;;;;9.20;8.38;;;;;;;23.24;54.01;100191.34;6179934;23;20036;-77
2021/06/27 10:30:20;;;;;;;7.32;6.55;;;;;;;23.19;54.21;100197.22;6185843;23;20001;-75
2021/06/27 10:32:45;;;;;;;11.13;8.00;;;;;;;23.20;54.28;100206.38;6179933;23;20013;-76
2021/06/27 10:35:14;;;;;;;8.73;7.78;;;;;;;23.15;54.50;100208.25;6134222;23;20013;-74
2021/06/27 10:37:43;;;;;;;7.88;6.97;;;;;;;23.04;54.31;100190.38;6181077;23;20013;-75
2021/06/27 10:40:13;;;;;;;10.90;8.07;;;;;;;23.18;54.38;100201.97;6181252;23;20028;-74
2021/06/27 10:42:48;;;;;;;9.48;8.65;;;;;;;23.38;54.46;100199.31;6159158;23;20013;-74
2021/06/27 10:45:15;;;;;;;7.60;7.07;;;;;;;23.46;53.63;100198.31;6183596;23;20009;-76
2021/06/27 10:47:41;;;;;;;7.50;7.00;;;;;;;23.46;53.49;100184.34;6182850;23;20009;-75
2021/06/27 10:50:09;;;;;;;10.43;7.93;;;;;;;23.59;52.95;100192.66;6184002;23;20039;-76
2021/06/27 10:52:59;;;;;;;7.72;6.93;;;;;;;23.71;52.82;100192.53;6153715;23;20328;-75
2021/06/27 10:55:29;;;;;;;6.20;5.80;;;;;;;23.56;52.75;100199.75;6166762;23;20009;-76
2021/06/27 10:58:43;;;;;;;10.45;6.40;;;;;;;23.52;52.58;100199.69;6183313;23;20292;-76
2021/06/27 11:01:10;;;;;;;6.38;5.93;;;;;;;23.39;53.21;100189.75;6178862;23;20013;-77
2021/06/27 11:03:44;;;;;;;8.82;6.40;;;;;;;23.39;53.13;100189.75;6182299;23;20446;-76
2021/06/27 11:06:18;;;;;;;5.15;4.85;;;;;;;23.65;53.50;100202.38;6186887;23;20016;-75
2021/06/27 11:09:08;;;;;;;6.32;5.93;;;;;;;23.75;52.67;100192.66;6185767;23;20367;-75
2021/06/27 11:12:08;;;;;;;6.40;6.00;;;;;;;23.94;52.45;100191.94;6179703;23;20363;-76
2021/06/27 11:15:14;;;;;;;7.18;6.68;;;;;;;23.81;52.42;100186.41;6181190;23;20020;-74
2021/06/27 11:17:57;;;;;;;6.65;6.00;;;;;;;24.18;51.81;100202.88;6177359;23;20004;-73
2021/06/27 11:20:30;;;;;;;5.00;4.60;;;;;;;24.35;51.86;100206.44;6157622;23;20013;-75
2021/06/27 11:22:57;;;;;;;7.03;6.47;;;;;;;24.52;51.00;100214.41;6179973;23;20079;-75
2021/06/27 11:25:38;;;;;;;6.60;6.20;;;;;;;24.47;50.88;100209.09;6183421;23;20005;-72
2021/06/27 11:28:18;;;;;;;6.95;5.93;;;;;;;24.33;50.44;100208.78;6176719;23;20001;-73
2021/06/27 11:31:14;;;;;;;5.80;5.40;;;;;;;24.29;50.46;100207.91;6184336;23;20778;-73
2021/06/27 11:33:40;;;;;;;7.47;5.60;;;;;;;24.20;50.70;100210.91;6171787;23;20008;-73